Terminal Aerodrome Forecast
Issued by NWS Cleveland, OH

Home | Current Version | Previous Version | Text Only | Print | Product List | Glossary On
Versions: 1 2 3 4 5 6 7 8 9 10 11 12 13
000
FTUS41 KCLE 181100
TAFCAK
TAF
KCAK 181130Z 1812/1912 16006KT P6SM SCT120 BKN200
     FM181800 28008KT P6SM VCSH SCT040 OVC100
     FM190000 35008KT P6SM SCT100 BKN200=

USA.gov is the U.S. government's official web portal to all federal, state and local government web resources and services.